MSC Beryl — 3EXV8 — position and weather

sailwx.info

Track history (hours):
 
Tides and Currents Weather Stations Pressure Air Temp Water Temp Dewpoint Dewpoint Depression Visibility Wind Speed Wind Dir Waves Ship Positions

MSC Beryl

Last reported at 2017-Nov-19 03:33 UTC. Time now 2017-Nov-24 22:20 UTC.
Position N 30°35' E 122°08'.

Length 366 m; draft 13.9 m.

Type: Ship (hazmat cat A). MMSI: 357926000.

Date/timePositionNaut miles runAvg speedWind from/ knotsBaromVisibWave heightAir tempDewpointWater temp
2017-Nov-19 03:33N 30°35' E 122°08'114.4
2017-Nov-19 03:30N 30°35' E 122°07'5 7.5
2017-Nov-19 02:53N 30°38' E 122°03'0 0.0
2017-Nov-19 02:07N 30°38' E 122°03'0 0.0
2017-Nov-19 01:07N 30°38' E 122°03'0 0.0
2017-Nov-18 10:19N 30°38' E 122°03'0 0.1
2017-Nov-18 09:55N 30°38' E 122°03'0 0.1
2017-Nov-18 09:25N 30°38' E 122°03'0 0.0
2017-Nov-18 08:55N 30°38' E 122°03'0 0.0
2017-Nov-18 07:31N 30°38' E 122°03'0 1.0
2017-Nov-18 07:28N 30°38' E 122°03'0 0.1
2017-Nov-18 06:55N 30°38' E 122°03'0 0.1
2017-Nov-18 06:25N 30°38' E 122°03'0 0.0
2017-Nov-18 01:25N 30°38' E 122°03'0 0.0
2017-Nov-17 22:52N 30°38' E 122°03'0 0.0
2017-Nov-17 22:28N 30°38' E 122°03'0 0.0
2017-Nov-17 21:58N 30°38' E 122°03'0 0.0
2017-Nov-17 21:28N 30°38' E 122°03'0 0.0
2017-Nov-17 20:55N 30°38' E 122°03'0 0.0
2017-Nov-17 20:28N 30°38' E 122°03'0 0.0
2017-Nov-17 19:58N 30°38' E 122°03'0 0.0
2017-Nov-17 19:28N 30°38' E 122°03'0 0.0
2017-Nov-17 10:08N 30°38' E 122°03'0 0.5
2017-Nov-17 10:00N 30°38' E 122°03'1 1.3
2017-Nov-17 09:30N 30°37' E 122°03'5 9.0
2017-Nov-17 09:00N 30°35' E 122°08'  
2017-Nov-14 09:31N 22°17' E 115°19'017.2
2017-Nov-14 09:30N 22°17' E 115°19'1018.8
2017-Nov-14 08:59N 22°17' E 115°09'918.6
2017-Nov-14 08:30N 22°18' E 114°59'918.9
2017-Nov-14 08:01N 22°19' E 114°49'1019.0
2017-Nov-14 07:30N 22°20' E 114°39'918.7
2017-Nov-14 07:01N 22°22' E 114°29'714.4
2017-Nov-14 06:31N 22°29' E 114°26'713.9
2017-Nov-14 06:01N 22°33' E 114°20'3 6.8
2017-Nov-14 05:30N 22°34' E 114°16'0 0.2
2017-Nov-14 05:00N 22°34' E 114°16'0 0.0
2017-Nov-14 04:29N 22°34' E 114°16'0 0.0
2017-Nov-14 03:59N 22°34' E 114°16'0 0.0
2017-Nov-14 03:29N 22°34' E 114°16'0 0.0
2017-Nov-14 02:59N 22°34' E 114°16'0 0.0
2017-Nov-14 02:29N 22°34' E 114°16'0 0.0
2017-Nov-14 01:59N 22°34' E 114°16'0 0.0
2017-Nov-14 01:29N 22°34' E 114°16'0 0.0
2017-Nov-14 00:59N 22°34' E 114°16'0 0.0
2017-Nov-14 00:29N 22°34' E 114°16'0 0.1
2017-Nov-13 23:59N 22°34' E 114°16'0 0.0
2017-Nov-13 23:29N 22°34' E 114°16'0 0.0
2017-Nov-13 22:59N 22°34' E 114°16'0 0.0
2017-Nov-13 22:29N 22°34' E 114°16'0 0.0
2017-Nov-13 21:59N 22°34' E 114°16'21 1.1
2017-Nov-13 01:59N 22°22' E 114°35'0 0.0
2017-Nov-13 01:27N 22°22' E 114°35'0 0.0
2017-Nov-13 01:00N 22°22' E 114°35'0 0.0
2017-Nov-13 00:30N 22°22' E 114°35'0 0.0
2017-Nov-13 00:00N 22°22' E 114°35'0 0.0
2017-Nov-12 23:30N 22°22' E 114°35'0 1.0
2017-Nov-12 23:00N 22°21' E 114°35'611.2
2017-Nov-12 22:30N 22°17' E 114°32'714.3
2017-Nov-12 22:00N 22°11' E 114°28'815.5
2017-Nov-12 21:30N 22°07' E 114°20'1012.0
2017-Nov-12 20:38N 22°13' E 114°10'111.6
2017-Nov-12 20:30N 22°13' E 114°09'610.9
2017-Nov-12 19:59N 22°18' E 114°06'5 9.6
2017-Nov-12 19:30N 22°21' E 114°02'714.1
2017-Nov-12 19:00N 22°23' E 113°54'4 7.9
2017-Nov-12 18:30N 22°26' E 113°53'3 5.7
2017-Nov-12 18:00N 22°29' E 113°52'0 0.1
2017-Nov-12 17:29N 22°29' E 113°52'0 0.0
2017-Nov-12 16:59N 22°29' E 113°52'0 0.1
2017-Nov-12 16:29N 22°29' E 113°52'0 0.0
2017-Nov-12 15:59N 22°29' E 113°52'0 0.0
2017-Nov-12 15:29N 22°29' E 113°52'0 0.0
2017-Nov-12 14:59N 22°29' E 113°52'0 0.0
2017-Nov-12 14:29N 22°29' E 113°52'0 0.0
2017-Nov-12 13:59N 22°29' E 113°52'0 0.0
2017-Nov-12 13:29N 22°29' E 113°52'0 0.0
2017-Nov-12 12:59N 22°29' E 113°52'0 0.0
2017-Nov-12 12:29N 22°29' E 113°52'0 0.0
2017-Nov-12 11:59N 22°29' E 113°52'0 0.0
2017-Nov-12 11:29N 22°29' E 113°52'0 0.0
2017-Nov-12 10:59N 22°29' E 113°52'0 0.0
2017-Nov-12 10:29N 22°29' E 113°52'0 0.0
2017-Nov-12 09:56N 22°29' E 113°52'0 0.0
2017-Nov-12 09:29N 22°29' E 113°52'0 0.0
2017-Nov-12 08:59N 22°29' E 113°52'0 0.0
2017-Nov-12 08:29N 22°29' E 113°52'0 0.0
2017-Nov-12 07:59N 22°29' E 113°52'0 0.0
2017-Nov-12 07:29N 22°29' E 113°52'0 0.0
2017-Nov-12 06:59N 22°29' E 113°52'0 0.0
2017-Nov-12 06:29N 22°29' E 113°52'0 0.0
2017-Nov-12 05:59N 22°29' E 113°52'0 0.0
2017-Nov-12 05:29N 22°29' E 113°52'0 0.0
2017-Nov-12 04:59N 22°29' E 113°52'0 0.0
2017-Nov-12 04:29N 22°29' E 113°52'0 0.0
2017-Nov-12 03:59N 22°29' E 113°52'0 0.0
2017-Nov-12 03:29N 22°29' E 113°52'0 0.0
2017-Nov-12 02:59N 22°29' E 113°52'0 0.0
2017-Nov-12 02:29N 22°29' E 113°52'0 0.2
2017-Nov-12 02:00N 22°29' E 113°52'5 9.4
2017-Nov-12 01:30N 22°25' E 113°54'3 6.1
2017-Nov-12 01:00N 22°22' E 113°55'510.3
2017-Nov-12 00:30N 22°21' E 114°00'5 8.9
2017-Nov-11 23:59N 22°19' E 114°05'714.1
2017-Nov-11 23:30N 22°14' E 114°09'4 7.7
2017-Nov-11 23:00N 22°11' E 114°12'2 4.4
2017-Nov-11 22:30N 22°09' E 114°13'2 3.3
2017-Nov-11 22:00N 22°08' E 114°15'4 4.6
2017-Nov-11 21:11N 22°07' E 114°19'2 7.8
2017-Nov-11 21:00N 22°07' E 114°20'4 8.5
2017-Nov-11 20:30N 22°03' E 114°21'8 8.9
2017-Nov-11 19:40N 21°57' E 114°17'11 8.8
2017-Nov-11 18:28N 21°47' E 114°11'  
Track history (hours):
 
Tides and Currents Weather Stations Pressure Air Temp Water Temp Dewpoint Dewpoint Depression Visibility Wind Speed Wind Dir Waves Ship Positions

MSC Beryl

Last reported at 2017-Nov-19 03:33 UTC. Time now 2017-Nov-24 22:20 UTC.
Position N 30°35' E 122°08'.

Length 366 m; draft 13.9 m.

Type: Ship (hazmat cat A). MMSI: 357926000.

Date/timePositionNaut miles runAvg speedWind from/ knotsBaromVisibWave heightAir tempDewpointWater temp
2017-Nov-19 03:33N 30°35' E 122°08'114.4
2017-Nov-19 03:30N 30°35' E 122°07'5 7.5
2017-Nov-19 02:53N 30°38' E 122°03'0 0.0
2017-Nov-19 02:07N 30°38' E 122°03'0 0.0
2017-Nov-19 01:07N 30°38' E 122°03'0 0.0
2017-Nov-18 10:19N 30°38' E 122°03'0 0.1
2017-Nov-18 09:55N 30°38' E 122°03'0 0.1
2017-Nov-18 09:25N 30°38' E 122°03'0 0.0
2017-Nov-18 08:55N 30°38' E 122°03'0 0.0
2017-Nov-18 07:31N 30°38' E 122°03'0 1.0
2017-Nov-18 07:28N 30°38' E 122°03'0 0.1
2017-Nov-18 06:55N 30°38' E 122°03'0 0.1
2017-Nov-18 06:25N 30°38' E 122°03'0 0.0
2017-Nov-18 01:25N 30°38' E 122°03'0 0.0
2017-Nov-17 22:52N 30°38' E 122°03'0 0.0
2017-Nov-17 22:28N 30°38' E 122°03'0 0.0
2017-Nov-17 21:58N 30°38' E 122°03'0 0.0
2017-Nov-17 21:28N 30°38' E 122°03'0 0.0
2017-Nov-17 20:55N 30°38' E 122°03'0 0.0
2017-Nov-17 20:28N 30°38' E 122°03'0 0.0
2017-Nov-17 19:58N 30°38' E 122°03'0 0.0
2017-Nov-17 19:28N 30°38' E 122°03'0 0.0
2017-Nov-17 10:08N 30°38' E 122°03'0 0.5
2017-Nov-17 10:00N 30°38' E 122°03'1 1.3
2017-Nov-17 09:30N 30°37' E 122°03'5 9.0
2017-Nov-17 09:00N 30°35' E 122°08'  
2017-Nov-14 09:31N 22°17' E 115°19'017.2
2017-Nov-14 09:30N 22°17' E 115°19'1018.8
2017-Nov-14 08:59N 22°17' E 115°09'918.6
2017-Nov-14 08:30N 22°18' E 114°59'918.9
2017-Nov-14 08:01N 22°19' E 114°49'1019.0
2017-Nov-14 07:30N 22°20' E 114°39'918.7
2017-Nov-14 07:01N 22°22' E 114°29'714.4
2017-Nov-14 06:31N 22°29' E 114°26'713.9
2017-Nov-14 06:01N 22°33' E 114°20'3 6.8
2017-Nov-14 05:30N 22°34' E 114°16'0 0.2
2017-Nov-14 05:00N 22°34' E 114°16'0 0.0
2017-Nov-14 04:29N 22°34' E 114°16'0 0.0
2017-Nov-14 03:59N 22°34' E 114°16'0 0.0
2017-Nov-14 03:29N 22°34' E 114°16'0 0.0
2017-Nov-14 02:59N 22°34' E 114°16'0 0.0
2017-Nov-14 02:29N 22°34' E 114°16'0 0.0
2017-Nov-14 01:59N 22°34' E 114°16'0 0.0
2017-Nov-14 01:29N 22°34' E 114°16'0 0.0
2017-Nov-14 00:59N 22°34' E 114°16'0 0.0
2017-Nov-14 00:29N 22°34' E 114°16'0 0.1
2017-Nov-13 23:59N 22°34' E 114°16'0 0.0
2017-Nov-13 23:29N 22°34' E 114°16'0 0.0
2017-Nov-13 22:59N 22°34' E 114°16'0 0.0
2017-Nov-13 22:29N 22°34' E 114°16'0 0.0
2017-Nov-13 21:59N 22°34' E 114°16'21 1.1
2017-Nov-13 01:59N 22°22' E 114°35'0 0.0
2017-Nov-13 01:27N 22°22' E 114°35'0 0.0
2017-Nov-13 01:00N 22°22' E 114°35'0 0.0
2017-Nov-13 00:30N 22°22' E 114°35'0 0.0
2017-Nov-13 00:00N 22°22' E 114°35'0 0.0
2017-Nov-12 23:30N 22°22' E 114°35'0 1.0
2017-Nov-12 23:00N 22°21' E 114°35'611.2
2017-Nov-12 22:30N 22°17' E 114°32'714.3
2017-Nov-12 22:00N 22°11' E 114°28'815.5
2017-Nov-12 21:30N 22°07' E 114°20'1012.0
2017-Nov-12 20:38N 22°13' E 114°10'111.6
2017-Nov-12 20:30N 22°13' E 114°09'610.9
2017-Nov-12 19:59N 22°18' E 114°06'5 9.6
2017-Nov-12 19:30N 22°21' E 114°02'714.1
2017-Nov-12 19:00N 22°23' E 113°54'4 7.9
2017-Nov-12 18:30N 22°26' E 113°53'3 5.7
2017-Nov-12 18:00N 22°29' E 113°52'0 0.1
2017-Nov-12 17:29N 22°29' E 113°52'0 0.0
2017-Nov-12 16:59N 22°29' E 113°52'0 0.1
2017-Nov-12 16:29N 22°29' E 113°52'0 0.0
2017-Nov-12 15:59N 22°29' E 113°52'0 0.0
2017-Nov-12 15:29N 22°29' E 113°52'0 0.0
2017-Nov-12 14:59N 22°29' E 113°52'0 0.0
2017-Nov-12 14:29N 22°29' E 113°52'0 0.0
2017-Nov-12 13:59N 22°29' E 113°52'0 0.0
2017-Nov-12 13:29N 22°29' E 113°52'0 0.0
2017-Nov-12 12:59N 22°29' E 113°52'0 0.0
2017-Nov-12 12:29N 22°29' E 113°52'0 0.0
2017-Nov-12 11:59N 22°29' E 113°52'0 0.0
2017-Nov-12 11:29N 22°29' E 113°52'0 0.0
2017-Nov-12 10:59N 22°29' E 113°52'0 0.0
2017-Nov-12 10:29N 22°29' E 113°52'0 0.0
2017-Nov-12 09:56N 22°29' E 113°52'0 0.0
2017-Nov-12 09:29N 22°29' E 113°52'0 0.0
2017-Nov-12 08:59N 22°29' E 113°52'0 0.0
2017-Nov-12 08:29N 22°29' E 113°52'0 0.0
2017-Nov-12 07:59N 22°29' E 113°52'0 0.0
2017-Nov-12 07:29N 22°29' E 113°52'0 0.0
2017-Nov-12 06:59N 22°29' E 113°52'0 0.0
2017-Nov-12 06:29N 22°29' E 113°52'0 0.0
2017-Nov-12 05:59N 22°29' E 113°52'0 0.0
2017-Nov-12 05:29N 22°29' E 113°52'0 0.0
2017-Nov-12 04:59N 22°29' E 113°52'0 0.0
2017-Nov-12 04:29N 22°29' E 113°52'0 0.0
2017-Nov-12 03:59N 22°29' E 113°52'0 0.0
2017-Nov-12 03:29N 22°29' E 113°52'0 0.0
2017-Nov-12 02:59N 22°29' E 113°52'0 0.0
2017-Nov-12 02:29N 22°29' E 113°52'0 0.2
2017-Nov-12 02:00N 22°29' E 113°52'5 9.4
2017-Nov-12 01:30N 22°25' E 113°54'3 6.1
2017-Nov-12 01:00N 22°22' E 113°55'510.3
2017-Nov-12 00:30N 22°21' E 114°00'5 8.9
2017-Nov-11 23:59N 22°19' E 114°05'714.1
2017-Nov-11 23:30N 22°14' E 114°09'4 7.7
2017-Nov-11 23:00N 22°11' E 114°12'2 4.4
2017-Nov-11 22:30N 22°09' E 114°13'2 3.3
2017-Nov-11 22:00N 22°08' E 114°15'4 4.6
2017-Nov-11 21:11N 22°07' E 114°19'2 7.8
2017-Nov-11 21:00N 22°07' E 114°20'4 8.5
2017-Nov-11 20:30N 22°03' E 114°21'8 8.9
2017-Nov-11 19:40N 21°57' E 114°17'11 8.8
2017-Nov-11 18:28N 21°47' E 114°11'  

Dump ship's entire track history